Time;durP1;ratioP1;P1;durP2;ratioP2;P2;SDS_P1;SDS_P2;PMS_P1;PMS_P2;Temp;Humidity;BMP_temperature;BMP_pressure;BME280_temperature;BME280_humidity;BME280_pressure;Samples;Min_cycle;Max_cycle;Signal;HPM_P1;HPM_P2
2022/04/17 00:00:23;;;;;;;4.47;4.07;;;;;;;;;;5036093;28;20931;-71
2022/04/17 00:02:49;;;;;;;5.20;4.60;;;;;;;;;;5035964;28;20414;-73
2022/04/17 00:05:15;;;;;;;4.50;3.27;;;;;;;;;;5035841;28;20477;-70
2022/04/17 00:07:41;;;;;;;4.60;3.90;;;;;;;;;;5036112;28;20410;-71
2022/04/17 00:10:10;;;;;;;4.00;3.63;;;;;;;;;;5035824;28;20889;-73
2022/04/17 00:12:41;;;;;;;7.20;4.17;;;;;;;;;;5035841;28;20442;-72
2022/04/17 00:15:10;;;;;;;5.33;4.07;;;;;;;;;;5035872;28;20409;-72
2022/04/17 00:17:42;;;;;;;5.10;3.80;;;;;;;;;;5035728;28;20454;-72
2022/04/17 00:20:15;;;;;;;6.43;4.37;;;;;;;;;;5035648;28;20530;-72
2022/04/17 00:22:41;;;;;;;4.70;4.03;;;;;;;;;;5035763;28;20393;-71
2022/04/17 00:25:07;;;;;;;4.33;3.93;;;;;;;;;;5035811;28;20414;-72
2022/04/17 00:27:39;;;;;;;4.97;3.90;;;;;;;;;;5034379;28;20402;-73
2022/04/17 00:30:05;;;;;;;4.03;3.63;;;;;;;;;;5035498;28;20497;-73
2022/04/17 00:32:31;;;;;;;5.73;5.00;;;;;;;;;;5035630;28;20401;-71
2022/04/17 00:34:58;;;;;;;6.30;3.33;;;;;;;;;;5035554;28;20410;-73
2022/04/17 00:37:24;;;;;;;4.80;3.90;;;;;;;;;;5035474;28;20510;-73
2022/04/17 00:39:51;;;;;;;3.63;3.10;;;;;;;;;;5035380;28;20434;-72
2022/04/17 00:42:17;;;;;;;4.57;3.73;;;;;;;;;;5035276;28;20411;-73
2022/04/17 00:44:43;;;;;;;5.97;4.00;;;;;;;;;;5035482;28;20763;-72
2022/04/17 00:47:11;;;;;;;4.83;3.43;;;;;;;;;;5035220;28;20407;-71
2022/04/17 00:49:37;;;;;;;4.87;3.73;;;;;;;;;;5035109;28;20929;-70
2022/04/17 00:52:04;;;;;;;4.13;3.40;;;;;;;;;;5035200;28;20422;-71
2022/04/17 00:54:30;;;;;;;3.87;3.50;;;;;;;;;;5035167;28;20395;-71
2022/04/17 00:56:57;;;;;;;4.00;3.70;;;;;;;;;;5035129;28;20446;-71
2022/04/17 00:59:23;;;;;;;4.97;4.00;;;;;;;;;;5034925;28;20502;-73
2022/04/17 01:01:49;;;;;;;4.53;3.80;;;;;;;;;;5034895;28;20513;-71
2022/04/17 01:04:16;;;;;;;4.00;3.60;;;;;;;;;;5033835;28;20557;-70
2022/04/17 01:06:42;;;;;;;3.27;3.03;;;;;;;;;;5035030;28;20783;-72
2022/04/17 01:09:08;;;;;;;5.80;4.00;;;;;;;;;;5034868;28;20469;-73
2022/04/17 01:11:38;;;;;;;5.70;4.07;;;;;;;;;;5034809;28;20408;-72
2022/04/17 01:14:05;;;;;;;4.23;3.83;;;;;;;;;;5033835;28;20781;-72
2022/04/17 01:16:31;;;;;;;4.47;4.07;;;;;;;;;;5034829;28;20413;-73
2022/04/17 01:19:02;;;;;;;4.07;3.63;;;;;;;;;;5034562;28;20462;-70
2022/04/17 01:21:29;;;;;;;4.67;3.90;;;;;;;;;;5034649;28;20549;-72
2022/04/17 01:26:56;;;;;;;5.07;3.83;;;;;;;;;;5034909;28;20413;-73
2022/04/17 01:29:30;;;;;;;8.10;4.40;;;;;;;;;;5034496;28;20480;-72
2022/04/17 01:31:56;;;;;;;4.07;3.70;;;;;;;;;;5034454;28;20493;-73
2022/04/17 01:34:23;;;;;;;5.00;4.20;;;;;;;;;;5034387;28;20410;-74
2022/04/17 01:36:49;;;;;;;4.93;3.70;;;;;;;;;;5034231;28;20453;-72
2022/04/17 01:39:16;;;;;;;4.37;3.97;;;;;;;;;;5034229;28;20423;-73
2022/04/17 01:41:42;;;;;;;5.43;3.73;;;;;;;;;;5034232;28;20757;-72
2022/04/17 01:44:08;;;;;;;4.70;3.93;;;;;;;;;;5034145;28;20410;-73
2022/04/17 01:46:35;;;;;;;5.90;4.00;;;;;;;;;;5034045;28;20441;-72
2022/04/17 01:49:02;;;;;;;4.23;3.83;;;;;;;;;;5033996;28;20427;-72
2022/04/17 01:51:28;;;;;;;4.47;3.87;;;;;;;;;;5034028;28;20445;-71
2022/04/17 01:53:54;;;;;;;5.13;3.70;;;;;;;;;;5034050;28;20480;-74
2022/04/17 01:56:20;;;;;;;4.20;3.80;;;;;;;;;;5033841;28;20940;-73
2022/04/17 01:58:46;;;;;;;5.83;3.80;;;;;;;;;;5033888;28;20462;-73
2022/04/17 02:01:12;;;;;;;4.20;3.73;;;;;;;;;;5033849;28;20424;-74
2022/04/17 02:03:38;;;;;;;5.00;3.50;;;;;;;;;;5033927;28;20452;-73
2022/04/17 02:06:04;;;;;;;5.23;4.50;;;;;;;;;;5033612;28;20458;-73
2022/04/17 02:08:31;;;;;;;4.90;3.50;;;;;;;;;;5033740;28;21007;-73
2022/04/17 02:10:57;;;;;;;4.67;4.27;;;;;;;;;;5033791;28;20433;-72
2022/04/17 02:13:23;;;;;;;6.00;4.33;;;;;;;;;;5032462;28;20418;-72
2022/04/17 02:15:53;;;;;;;6.73;4.80;;;;;;;;;;5033415;28;20403;-72
2022/04/17 02:18:24;;;;;;;5.77;4.33;;;;;;;;;;5033432;28;20477;-73
2022/04/17 02:20:50;;;;;;;5.13;4.50;;;;;;;;;;5033407;28;20398;-72
2022/04/17 02:23:16;;;;;;;4.47;3.97;;;;;;;;;;5033531;28;20913;-73
2022/04/17 02:25:42;;;;;;;4.40;4.00;;;;;;;;;;5033481;28;20411;-70
2022/04/17 02:28:08;;;;;;;6.00;4.37;;;;;;;;;;5033485;28;20437;-72
2022/04/17 02:30:34;;;;;;;6.10;4.27;;;;;;;;;;5033408;28;20410;-72
2022/04/17 02:33:00;;;;;;;4.63;4.10;;;;;;;;;;5033445;28;20442;-71
2022/04/17 02:35:26;;;;;;;3.70;3.47;;;;;;;;;;5033419;28;20816;-72
2022/04/17 02:37:52;;;;;;;4.33;3.93;;;;;;;;;;5033203;28;20465;-72
2022/04/17 02:40:18;;;;;;;4.87;4.47;;;;;;;;;;5033418;28;20472;-73
2022/04/17 02:42:44;;;;;;;6.27;4.73;;;;;;;;;;5033220;28;20417;-70
2022/04/17 02:45:10;;;;;;;4.47;4.07;;;;;;;;;;5031878;28;20442;-73
2022/04/17 02:47:42;;;;;;;6.97;5.00;;;;;;;;;;5033202;28;20418;-73
2022/04/17 02:50:09;;;;;;;4.93;4.43;;;;;;;;;;5033143;28;20510;-72
2022/04/17 02:52:35;;;;;;;5.33;4.83;;;;;;;;;;5033305;28;20450;-72
2022/04/17 02:55:01;;;;;;;4.63;4.23;;;;;;;;;;5033128;28;20410;-74
2022/04/17 02:57:28;;;;;;;4.33;3.93;;;;;;;;;;5032978;28;20964;-72
2022/04/17 02:59:54;;;;;;;5.47;4.33;;;;;;;;;;5032650;28;20404;-73
2022/04/17 03:07:50;;;;;;;5.53;5.00;;;;;;;;;;5033191;28;20983;-74
2022/04/17 03:10:16;;;;;;;5.27;4.40;;;;;;;;;;5032996;28;20460;-72
2022/04/17 03:12:42;;;;;;;5.87;4.60;;;;;;;;;;5033031;28;20414;-72
2022/04/17 03:15:08;;;;;;;5.33;4.50;;;;;;;;;;5032970;28;20818;-71
2022/04/17 03:17:34;;;;;;;5.27;4.77;;;;;;;;;;5032931;28;20454;-74
2022/04/17 03:20:00;;;;;;;6.20;4.73;;;;;;;;;;5032661;28;20781;-70
2022/04/17 03:22:26;;;;;;;6.90;4.57;;;;;;;;;;5032830;28;20402;-73
2022/04/17 03:24:52;;;;;;;4.70;4.30;;;;;;;;;;5032869;28;20449;-72
2022/04/17 03:27:19;;;;;;;5.17;4.20;;;;;;;;;;5035078;28;20906;-72
2022/04/17 03:29:45;;;;;;;5.60;5.10;;;;;;;;;;5036642;28;20497;-72
2022/04/17 03:32:11;;;;;;;6.00;4.43;;;;;;;;;;5036642;28;20410;-73
2022/04/17 03:34:37;;;;;;;4.10;3.70;;;;;;;;;;5036751;28;20405;-71
2022/04/17 03:37:04;;;;;;;4.60;4.20;;;;;;;;;;5036458;28;20857;-72
2022/04/17 03:39:31;;;;;;;8.00;4.63;;;;;;;;;;5036469;28;20411;-74
2022/04/17 03:41:57;;;;;;;5.60;4.00;;;;;;;;;;5036513;28;20462;-72
2022/04/17 03:44:23;;;;;;;5.23;4.73;;;;;;;;;;5036494;28;20408;-71
2022/04/17 03:46:50;;;;;;;4.93;3.67;;;;;;;;;;5036481;28;20446;-72
2022/04/17 03:49:16;;;;;;;6.00;4.17;;;;;;;;;;5036058;28;20432;-74
2022/04/17 03:51:42;;;;;;;5.83;4.37;;;;;;;;;;5036464;28;20878;-73
2022/04/17 03:54:08;;;;;;;4.27;3.80;;;;;;;;;;5036215;28;20426;-71
2022/04/17 03:56:34;;;;;;;4.13;3.77;;;;;;;;;;5036358;28;20446;-71
2022/04/17 03:59:03;;;;;;;7.53;4.57;;;;;;;;;;5035977;28;20585;-72
2022/04/17 04:01:29;;;;;;;4.70;4.00;;;;;;;;;;5036151;28;20463;-71
2022/04/17 04:03:56;;;;;;;6.07;4.27;;;;;;;;;;5036033;28;20424;-73
2022/04/17 04:06:22;;;;;;;4.40;4.00;;;;;;;;;;5035895;28;20490;-71
2022/04/17 04:08:51;;;;;;;4.00;3.63;;;;;;;;;;5035993;28;20416;-72
2022/04/17 04:11:18;;;;;;;5.50;3.97;;;;;;;;;;5036012;28;20501;-72
2022/04/17 04:13:44;;;;;;;4.47;3.80;;;;;;;;;;5035889;28;20412;-72
2022/04/17 04:16:10;;;;;;;3.87;3.47;;;;;;;;;;5035865;28;20412;-73
2022/04/17 04:18:37;;;;;;;5.20;4.23;;;;;;;;;;5035594;28;20475;-72
2022/04/17 04:21:03;;;;;;;6.13;4.00;;;;;;;;;;5035774;28;20416;-72
2022/04/17 04:23:33;;;;;;;5.07;4.27;;;;;;;;;;5035745;28;20588;-72
2022/04/17 04:25:59;;;;;;;4.97;3.67;;;;;;;;;;5035765;28;20410;-72
2022/04/17 04:28:36;;;;;;;7.63;4.00;;;;;;;;;;5034365;28;20501;-71
2022/04/17 04:31:02;;;;;;;5.13;3.67;;;;;;;;;;5035639;28;20425;-70
2022/04/17 04:33:31;;;;;;;5.43;4.20;;;;;;;;;;5035555;28;20444;-73
2022/04/17 04:35:58;;;;;;;4.87;3.97;;;;;;;;;;5034216;28;20412;-71
2022/04/17 04:38:24;;;;;;;5.80;4.30;;;;;;;;;;5035207;28;20468;-71
2022/04/17 04:40:51;;;;;;;4.87;3.97;;;;;;;;;;5035470;28;20916;-69
2022/04/17 04:43:17;;;;;;;5.53;4.10;;;;;;;;;;5035409;28;20416;-70
2022/04/17 04:51:13;;;;;;;4.80;3.60;;;;;;;;;;5035264;28;20404;-75
2022/04/17 04:53:39;;;;;;;5.33;3.97;;;;;;;;;;5034102;28;20414;-73
2022/04/17 04:56:05;;;;;;;4.47;4.07;;;;;;;;;;5035275;28;20405;-74
2022/04/17 04:58:31;;;;;;;4.80;4.30;;;;;;;;;;5034884;28;21155;-75
2022/04/17 05:00:57;;;;;;;4.57;4.10;;;;;;;;;;5035424;28;20829;-68
2022/04/17 05:03:24;;;;;;;4.87;4.10;;;;;;;;;;5035273;28;20413;-77
2022/04/17 05:05:50;;;;;;;5.53;4.50;;;;;;;;;;5034850;28;20471;-75
2022/04/17 05:08:16;;;;;;;8.17;4.93;;;;;;;;;;5034899;28;20412;-74
2022/04/17 05:10:42;;;;;;;6.10;4.20;;;;;;;;;;5034960;28;20419;-70
2022/04/17 05:13:08;;;;;;;3.80;3.50;;;;;;;;;;5034941;28;20416;-74
2022/04/17 05:15:34;;;;;;;5.20;4.00;;;;;;;;;;5034851;28;20454;-73
2022/04/17 05:18:00;;;;;;;4.70;4.23;;;;;;;;;;5034602;28;20474;-75
2022/04/17 05:20:27;;;;;;;6.30;5.00;;;;;;;;;;5034783;28;20462;-72
2022/04/17 05:22:56;;;;;;;4.80;4.20;;;;;;;;;;5034818;28;20456;-74
2022/04/17 05:25:25;;;;;;;7.50;4.60;;;;;;;;;;5034660;28;20400;-74
2022/04/17 05:27:51;;;;;;;4.80;4.20;;;;;;;;;;5034467;28;20430;-73
2022/04/17 05:30:17;;;;;;;4.50;3.87;;;;;;;;;;5034549;28;20404;-76
2022/04/17 05:32:43;;;;;;;7.20;4.90;;;;;;;;;;5034506;28;20908;-72
2022/04/17 05:35:09;;;;;;;4.77;3.80;;;;;;;;;;5034279;28;20412;-73
2022/04/17 05:37:35;;;;;;;6.07;4.20;;;;;;;;;;5034113;28;20513;-72
2022/04/17 05:40:01;;;;;;;6.63;4.33;;;;;;;;;;5034087;28;21008;-71
2022/04/17 05:42:27;;;;;;;5.50;4.50;;;;;;;;;;5034287;28;20493;-75
2022/04/17 05:44:53;;;;;;;4.87;4.37;;;;;;;;;;5034214;28;20522;-74
2022/04/17 05:47:19;;;;;;;6.27;4.43;;;;;;;;;;5034159;28;20404;-73
2022/04/17 05:49:45;;;;;;;8.43;4.63;;;;;;;;;;5033458;28;20785;-71
2022/04/17 05:52:12;;;;;;;4.40;4.00;;;;;;;;;;5033988;28;20498;-73
2022/04/17 05:54:43;;;;;;;7.70;4.00;;;;;;;;;;5034042;28;20434;-74
2022/04/17 05:57:09;;;;;;;6.37;4.20;;;;;;;;;;5034015;28;20396;-70
2022/04/17 05:59:36;;;;;;;6.33;4.77;;;;;;;;;;5032650;28;20426;-73
2022/04/17 06:02:02;;;;;;;4.77;4.33;;;;;;;;;;5033951;28;20404;-71
2022/04/17 06:04:28;;;;;;;7.00;4.73;;;;;;;;;;5032308;28;20436;-72
2022/04/17 06:06:54;;;;;;;6.53;5.13;;;;;;;;;;5033899;28;20766;-73
2022/04/17 06:09:20;;;;;;;4.10;3.70;;;;;;;;;;5033721;28;20426;-72
2022/04/17 06:11:46;;;;;;;5.50;4.33;;;;;;;;;;5032549;28;20890;-75
2022/04/17 06:14:12;;;;;;;5.53;4.10;;;;;;;;;;5033764;28;20473;-70
2022/04/17 06:16:40;;;;;;;5.37;3.93;;;;;;;;;;5032396;28;20519;-64
2022/04/17 06:19:09;;;;;;;5.90;4.07;;;;;;;;;;5033387;28;20471;-68
2022/04/17 06:21:35;;;;;;;6.60;3.73;;;;;;;;;;5033521;28;20422;-70
2022/04/17 06:24:01;;;;;;;4.13;3.73;;;;;;;;;;5033538;28;20478;-67
2022/04/17 06:26:27;;;;;;;3.97;3.67;;;;;;;;;;5033633;28;20867;-73
2022/04/17 06:28:53;;;;;;;4.97;3.67;;;;;;;;;;5033442;28;20461;-70
2022/04/17 06:31:19;;;;;;;5.60;3.97;;;;;;;;;;5033408;28;20423;-71
2022/04/17 06:33:45;;;;;;;6.27;3.53;;;;;;;;;;5033352;28;20848;-70
2022/04/17 06:36:11;;;;;;;3.90;3.60;;;;;;;;;;5033457;28;20410;-73
2022/04/17 06:38:37;;;;;;;4.57;4.07;;;;;;;;;;5033145;28;20869;-65
2022/04/17 06:41:03;;;;;;;5.73;3.73;;;;;;;;;;5033221;28;20410;-75
2022/04/17 06:43:29;;;;;;;4.33;3.77;;;;;;;;;;5033364;28;20433;-73
2022/04/17 06:45:55;;;;;;;3.90;3.53;;;;;;;;;;5033342;28;20449;-68
2022/04/17 06:48:22;;;;;;;4.57;4.00;;;;;;;;;;5031891;28;20429;-64
2022/04/17 06:50:49;;;;;;;5.23;3.50;;;;;;;;;;5033185;28;20402;-71
2022/04/17 06:53:16;;;;;;;6.23;4.40;;;;;;;;;;5033265;28;20493;-71
2022/04/17 06:55:42;;;;;;;4.63;3.83;;;;;;;;;;5033169;28;20941;-70
2022/04/17 06:58:08;;;;;;;4.83;4.07;;;;;;;;;;5031749;28;21015;-67
2022/04/17 07:00:34;;;;;;;4.13;3.73;;;;;;;;;;5033168;28;20438;-72
2022/04/17 07:03:00;;;;;;;5.67;3.53;;;;;;;;;;5036694;28;20398;-65
2022/04/17 07:05:26;;;;;;;3.40;3.10;;;;;;;;;;5037002;28;20450;-73
2022/04/17 07:08:03;;;;;;;6.03;3.90;;;;;;;;;;5037090;28;20469;-74
2022/04/17 07:10:29;;;;;;;3.57;3.27;;;;;;;;;;5037196;28;20477;-67
2022/04/17 07:12:56;;;;;;;4.40;4.00;;;;;;;;;;5036977;28;20415;-71
2022/04/17 07:15:25;;;;;;;3.87;3.57;;;;;;;;;;5036931;28;20505;-72
2022/04/17 07:17:52;;;;;;;3.00;2.80;;;;;;;;;;5036881;28;20974;-70
2022/04/17 07:20:18;;;;;;;4.83;3.10;;;;;;;;;;5036800;28;20417;-65
2022/04/17 07:22:45;;;;;;;3.20;2.90;;;;;;;;;;5036939;28;20406;-66
2022/04/17 07:25:11;;;;;;;3.70;3.40;;;;;;;;;;5036845;28;20781;-75
2022/04/17 07:27:42;;;;;;;3.30;3.00;;;;;;;;;;5036708;28;20418;-69
2022/04/17 07:30:09;;;;;;;4.00;3.60;;;;;;;;;;5036811;28;20414;-74
2022/04/17 07:32:35;;;;;;;6.23;3.47;;;;;;;;;;5035458;28;20415;-74
2022/04/17 07:35:01;;;;;;;3.80;3.17;;;;;;;;;;5036701;28;20414;-73
2022/04/17 07:37:28;;;;;;;3.33;3.03;;;;;;;;;;5036607;28;20974;-68
2022/04/17 07:39:54;;;;;;;2.93;2.73;;;;;;;;;;5036458;28;20445;-73
2022/04/17 07:42:21;;;;;;;3.97;3.53;;;;;;;;;;5036503;28;20403;-69
2022/04/17 07:44:48;;;;;;;6.37;3.40;;;;;;;;;;5036522;28;20410;-63
2022/04/17 07:47:14;;;;;;;3.93;2.93;;;;;;;;;;5035221;28;20821;-72
2022/04/17 07:49:41;;;;;;;3.33;2.87;;;;;;;;;;5036202;28;20418;-65
2022/04/17 07:52:07;;;;;;;3.33;3.03;;;;;;;;;;5036348;28;20442;-73
2022/04/17 07:54:33;;;;;;;4.50;2.90;;;;;;;;;;5036428;28;20434;-65
2022/04/17 07:57:00;;;;;;;3.37;3.03;;;;;;;;;;5036373;28;20932;-67
2022/04/17 07:59:26;;;;;;;3.20;3.00;;;;;;;;;;5036219;28;20437;-69
2022/04/17 08:02:01;;;;;;;3.33;3.03;;;;;;;;;;5036185;28;20915;-71
2022/04/17 08:04:27;;;;;;;3.20;2.60;;;;;;;;;;5035953;28;20540;-73
2022/04/17 08:06:54;;;;;;;3.37;2.77;;;;;;;;;;5036187;28;20438;-74
2022/04/17 08:09:20;;;;;;;2.70;2.50;;;;;;;;;;5034761;28;20419;-73
2022/04/17 08:11:51;;;;;;;3.03;2.80;;;;;;;;;;5035781;28;20415;-66
2022/04/17 08:14:18;;;;;;;3.37;3.07;;;;;;;;;;5035943;28;20767;-64
2022/04/17 08:16:44;;;;;;;3.87;3.53;;;;;;;;;;5035967;28;20402;-72
2022/04/17 08:19:10;;;;;;;3.40;3.10;;;;;;;;;;5035540;28;20478;-67
2022/04/17 08:21:36;;;;;;;3.13;2.83;;;;;;;;;;5035685;28;20406;-65
2022/04/17 08:24:02;;;;;;;4.00;3.63;;;;;;;;;;5035801;28;20437;-71
2022/04/17 08:26:29;;;;;;;4.70;2.83;;;;;;;;;;5035760;28;20410;-74
2022/04/17 08:28:55;;;;;;;3.70;2.50;;;;;;;;;;5034401;28;20446;-75
2022/04/17 08:31:21;;;;;;;3.13;2.70;;;;;;;;;;5035659;28;20409;-65
2022/04/17 08:33:47;;;;;;;2.63;2.43;;;;;;;;;;5035650;28;20407;-71
2022/04/17 08:36:13;;;;;;;4.13;2.70;;;;;;;;;;5035567;28;20449;-69
2022/04/17 08:38:42;;;;;;;3.60;3.30;;;;;;;;;;5035376;28;20521;-74
2022/04/17 08:41:09;;;;;;;2.47;2.27;;;;;;;;;;5035409;28;20418;-73
2022/04/17 08:43:36;;;;;;;3.80;3.07;;;;;;;;;;5035478;28;20414;-69
2022/04/17 08:46:03;;;;;;;4.17;3.77;;;;;;;;;;5035300;28;20734;-72
2022/04/17 08:48:29;;;;;;;3.47;3.10;;;;;;;;;;5035130;28;20441;-71
2022/04/17 08:50:55;;;;;;;3.23;2.93;;;;;;;;;;5035210;28;20414;-65
2022/04/17 08:53:22;;;;;;;3.57;2.90;;;;;;;;;;5035088;28;20911;-69
2022/04/17 08:55:49;;;;;;;3.57;2.60;;;;;;;;;;5035242;28;20399;-72
2022/04/17 08:58:15;;;;;;;2.33;2.13;;;;;;;;;;5035001;28;20511;-73
2022/04/17 09:00:42;;;;;;;2.93;2.50;;;;;;;;;;5035048;28;20442;-69
2022/04/17 09:03:09;;;;;;;2.87;2.53;;;;;;;;;;5035072;28;20498;-72
2022/04/17 09:05:35;;;;;;;2.77;2.53;;;;;;;;;;5034827;28;20450;-65
2022/04/17 09:08:13;;;;;;;2.93;2.73;;;;;;;;;;5034924;28;20407;-70
2022/04/17 09:10:39;;;;;;;2.80;2.60;;;;;;;;;;5034927;28;20398;-69
2022/04/17 09:13:05;;;;;;;2.10;1.97;;;;;;;;;;5034878;28;20456;-71
2022/04/17 09:15:32;;;;;;;2.93;2.30;;;;;;;;;;5034751;28;20909;-70
2022/04/17 09:17:59;;;;;;;2.80;2.43;;;;;;;;;;5034589;28;20501;-67
2022/04/17 09:20:25;;;;;;;3.13;2.60;;;;;;;;;;5034572;28;20556;-68
2022/04/17 09:22:53;;;;;;;3.10;2.80;;;;;;;;;;5034796;28;20550;-70
2022/04/17 09:25:22;;;;;;;4.90;3.20;;;;;;;;;;5033771;28;20422;-69
2022/04/17 09:28:02;;;;;;;3.10;2.87;;;;;;;;;;5034550;28;20410;-73
2022/04/17 09:30:29;;;;;;;3.40;3.10;;;;;;;;;;5034552;28;20423;-73
2022/04/17 09:32:56;;;;;;;3.13;2.60;;;;;;;;;;5034398;28;20408;-68
2022/04/17 09:35:23;;;;;;;3.67;2.77;;;;;;;;;;5034449;28;20493;-73
2022/04/17 09:37:49;;;;;;;2.50;2.30;;;;;;;;;;5034334;28;20457;-66
2022/04/17 09:40:20;;;;;;;3.63;2.40;;;;;;;;;;5033034;28;20422;-64
2022/04/17 09:42:47;;;;;;;3.20;2.60;;;;;;;;;;5034310;28;20497;-64
2022/04/17 09:45:13;;;;;;;2.93;2.73;;;;;;;;;;5034195;28;20422;-73
2022/04/17 09:47:39;;;;;;;4.17;2.73;;;;;;;;;;5034150;28;20461;-74
2022/04/17 09:50:06;;;;;;;2.80;2.57;;;;;;;;;;5034063;28;20446;-74
2022/04/17 09:52:32;;;;;;;3.57;3.33;;;;;;;;;;5034181;28;20409;-74
2022/04/17 09:54:59;;;;;;;2.20;2.10;;;;;;;;;;5033972;28;20406;-65
2022/04/17 09:57:31;;;;;;;2.93;2.40;;;;;;;;;;5033768;28;20916;-64
2022/04/17 09:59:58;;;;;;;3.03;2.83;;;;;;;;;;5033921;28;20882;-69
2022/04/17 10:02:25;;;;;;;3.17;2.50;;;;;;;;;;5033916;28;20878;-63
2022/04/17 10:04:51;;;;;;;3.47;2.80;;;;;;;;;;5033709;28;20485;-68
2022/04/17 10:07:19;;;;;;;2.97;2.67;;;;;;;;;;5033752;28;20421;-63
2022/04/17 10:09:46;;;;;;;2.83;2.63;;;;;;;;;;5033806;28;20900;-73
2022/04/17 10:12:18;;;;;;;3.13;2.80;;;;;;;;;;5033776;28;20409;-63
2022/04/17 10:14:44;;;;;;;2.90;2.53;;;;;;;;;;5033723;28;20824;-73
2022/04/17 10:17:10;;;;;;;4.27;2.37;;;;;;;;;;5033580;28;20409;-64
2022/04/17 10:19:36;;;;;;;2.50;2.30;;;;;;;;;;5033335;28;20774;-63
2022/04/17 10:22:03;;;;;;;5.53;2.93;;;;;;;;;;5033595;28;20456;-74
2022/04/17 10:24:29;;;;;;;3.03;2.60;;;;;;;;;;5033595;28;20898;-64
2022/04/17 10:26:55;;;;;;;2.80;2.60;;;;;;;;;;5033601;28;20403;-62
2022/04/17 10:29:23;;;;;;;3.63;2.23;;;;;;;;;;5033419;28;20803;-66
2022/04/17 10:31:49;;;;;;;2.17;2.00;;;;;;;;;;5033363;28;20464;-63
2022/04/17 10:34:27;;;;;;;2.63;2.43;;;;;;;;;;5033511;28;20882;-73
2022/04/17 10:37:12;;;;;;;2.53;2.33;;;;;;;;;;5033558;28;20808;-63
2022/04/17 10:39:42;;;;;;;2.40;2.30;;;;;;;;;;5033286;28;20452;-73
2022/04/17 10:42:09;;;;;;;2.87;2.57;;;;;;;;;;5033407;28;20434;-73
2022/04/17 10:44:41;;;;;;;3.10;2.80;;;;;;;;;;5033204;28;20950;-63
2022/04/17 10:47:07;;;;;;;2.90;2.30;;;;;;;;;;5033305;28;20457;-66
2022/04/17 10:49:33;;;;;;;2.70;2.00;;;;;;;;;;5033174;28;20497;-73
2022/04/17 10:51:59;;;;;;;2.30;2.10;;;;;;;;;;5033092;28;20473;-64
2022/04/17 10:54:26;;;;;;;1.97;1.87;;;;;;;;;;5033236;28;20406;-73
2022/04/17 10:56:55;;;;;;;1.90;1.80;;;;;;;;;;5033232;28;20417;-63
2022/04/17 10:59:31;;;;;;;2.40;2.20;;;;;;;;;;5032850;28;20462;-64
2022/04/17 11:02:05;;;;;;;3.20;2.20;;;;;;;;;;5033209;28;20795;-63
2022/04/17 11:04:41;;;;;;;2.10;2.00;;;;;;;;;;5032888;28;20414;-63
2022/04/17 11:07:07;;;;;;;3.50;1.83;;;;;;;;;;5033104;28;20399;-63
2022/04/17 11:09:34;;;;;;;2.63;1.93;;;;;;;;;;5033122;28;20402;-63
2022/04/17 11:12:21;;;;;;;3.20;2.13;;;;;;;;;;5032993;28;20425;-65
2022/04/17 11:14:54;;;;;;;2.27;1.70;;;;;;;;;;5033025;28;20406;-75
2022/04/17 11:17:21;;;;;;;2.57;1.70;;;;;;;;;;5032886;28;20490;-63
2022/04/17 11:19:48;;;;;;;2.30;2.10;;;;;;;;;;5032729;28;20426;-73
2022/04/17 11:22:16;;;;;;;2.47;2.13;;;;;;;;;;5032975;28;20453;-62
2022/04/17 11:24:54;;;;;;;1.90;1.80;;;;;;;;;;5033090;28;20411;-63
2022/04/17 11:27:45;;;;;;;2.00;1.90;;;;;;;;;;5032777;28;20892;-64
2022/04/17 11:30:17;;;;;;;1.97;1.83;;;;;;;;;;5033018;28;20407;-63
2022/04/17 11:32:43;;;;;;;1.83;1.60;;;;;;;;;;5032826;28;20421;-74
2022/04/17 11:35:09;;;;;;;4.20;2.10;;;;;;;;;;5032847;28;20901;-70
2022/04/17 11:37:36;;;;;;;2.10;2.00;;;;;;;;;;5032593;28;21011;-63
2022/04/17 11:40:15;;;;;;;1.63;1.53;;;;;;;;;;5032719;28;20414;-63
2022/04/17 11:42:42;;;;;;;1.70;1.60;;;;;;;;;;5032791;28;20406;-63
2022/04/17 11:45:09;;;;;;;1.60;1.50;;;;;;;;;;5032747;28;20854;-63
2022/04/17 11:47:39;;;;;;;2.70;2.17;;;;;;;;;;5033569;28;20901;-64
2022/04/17 11:50:06;;;;;;;2.20;2.00;;;;;;;;;;5036369;28;20782;-64
2022/04/17 11:52:32;;;;;;;2.13;1.93;;;;;;;;;;5036419;28;20413;-64
2022/04/17 11:55:00;;;;;;;2.07;1.80;;;;;;;;;;5036466;28;20501;-63
2022/04/17 11:57:26;;;;;;;2.13;2.03;;;;;;;;;;5036248;28;20549;-64
2022/04/17 11:59:56;;;;;;;1.60;1.50;;;;;;;;;;5036233;28;20411;-63
2022/04/17 12:02:23;;;;;;;2.20;2.00;;;;;;;;;;5036169;28;20806;-73
2022/04/17 12:04:50;;;;;;;1.67;1.57;;;;;;;;;;5035982;28;20457;-63
2022/04/17 12:07:20;;;;;;;1.50;1.40;;;;;;;;;;5036045;28;20475;-63
2022/04/17 12:09:49;;;;;;;2.30;2.20;;;;;;;;;;5036046;28;20450;-63
2022/04/17 12:12:15;;;;;;;2.40;2.20;;;;;;;;;;5036059;28;20482;-63
2022/04/17 12:14:42;;;;;;;1.97;1.80;;;;;;;;;;5036009;28;20407;-62
2022/04/17 12:17:08;;;;;;;2.97;2.00;;;;;;;;;;5035918;28;20395;-72
2022/04/17 12:19:34;;;;;;;2.20;2.10;;;;;;;;;;5035622;28;21038;-69
2022/04/17 12:22:21;;;;;;;2.10;2.00;;;;;;;;;;5035762;28;20886;-64
2022/04/17 12:24:47;;;;;;;2.23;2.07;;;;;;;;;;5035777;28;20422;-63
2022/04/17 12:27:19;;;;;;;2.10;2.00;;;;;;;;;;5035759;28;20464;-63
2022/04/17 12:29:50;;;;;;;2.33;1.97;;;;;;;;;;5035755;28;20452;-63
2022/04/17 12:32:17;;;;;;;2.57;2.37;;;;;;;;;;5035633;28;20418;-62
2022/04/17 12:34:46;;;;;;;2.23;2.03;;;;;;;;;;5035659;28;20460;-63
2022/04/17 12:37:22;;;;;;;2.77;2.10;;;;;;;;;;5035502;28;20421;-75
2022/04/17 12:39:48;;;;;;;1.90;1.80;;;;;;;;;;5035473;28;20406;-66
2022/04/17 12:42:16;;;;;;;2.10;1.97;;;;;;;;;;5035503;28;20418;-64
2022/04/17 12:44:41;;;;;;;3.77;1.70;;;;;;;;;;5035536;28;20406;-64
2022/04/17 12:47:12;;;;;;;1.93;1.83;;;;;;;;;;5035239;28;20410;-74
2022/04/17 12:49:38;;;;;;;2.00;1.90;;;;;;;;;;5035310;28;20431;-64
2022/04/17 12:52:04;;;;;;;2.10;1.90;;;;;;;;;;5035270;28;20402;-64
2022/04/17 12:54:34;;;;;;;2.60;2.40;;;;;;;;;;5035318;28;20465;-73
2022/04/17 12:57:05;;;;;;;2.90;2.00;;;;;;;;;;5035250;28;20402;-64
2022/04/17 12:59:40;;;;;;;3.73;1.83;;;;;;;;;;5034977;28;20545;-67
2022/04/17 13:02:13;;;;;;;1.70;1.60;;;;;;;;;;5035024;28;20501;-63
2022/04/17 13:04:43;;;;;;;4.03;1.70;;;;;;;;;;5033632;28;20458;-74
2022/04/17 13:07:11;;;;;;;3.03;1.90;;;;;;;;;;5034997;28;20414;-67
2022/04/17 13:09:37;;;;;;;2.53;2.07;;;;;;;;;;5035028;28;20412;-72
2022/04/17 13:12:03;;;;;;;2.40;1.93;;;;;;;;;;5035063;28;20493;-64
2022/04/17 13:14:29;;;;;;;1.77;1.60;;;;;;;;;;5034988;28;20430;-64
2022/04/17 13:16:57;;;;;;;2.27;1.60;;;;;;;;;;5035002;28;20457;-64
2022/04/17 13:19:24;;;;;;;1.80;1.70;;;;;;;;;;5034517;28;20552;-63
2022/04/17 13:21:51;;;;;;;1.67;1.57;;;;;;;;;;5034786;28;20914;-72
2022/04/17 13:24:19;;;;;;;2.03;1.60;;;;;;;;;;5034705;28;20407;-70
2022/04/17 13:26:45;;;;;;;1.93;1.83;;;;;;;;;;5034607;28;20445;-74
2022/04/17 13:29:11;;;;;;;1.87;1.77;;;;;;;;;;5034503;28;20422;-63
2022/04/17 13:31:37;;;;;;;2.23;2.03;;;;;;;;;;5034545;28;20411;-63
2022/04/17 13:34:04;;;;;;;1.73;1.63;;;;;;;;;;5034481;28;20407;-63
2022/04/17 13:36:30;;;;;;;1.57;1.47;;;;;;;;;;5034500;28;20402;-64
2022/04/17 13:38:56;;;;;;;1.70;1.60;;;;;;;;;;5034217;28;20883;-70
2022/04/17 13:41:23;;;;;;;1.80;1.70;;;;;;;;;;5034357;28;20405;-64
2022/04/17 13:43:49;;;;;;;1.77;1.67;;;;;;;;;;5034296;28;20526;-71
2022/04/17 13:46:15;;;;;;;3.40;1.90;;;;;;;;;;5034320;28;20402;-75
2022/04/17 13:48:43;;;;;;;1.67;1.57;;;;;;;;;;5034083;28;20427;-73
2022/04/17 13:51:09;;;;;;;3.10;2.30;;;;;;;;;;5034129;28;20426;-73
2022/04/17 13:53:35;;;;;;;1.90;1.80;;;;;;;;;;5034085;28;20502;-72
2022/04/17 13:56:02;;;;;;;1.83;1.73;;;;;;;;;;5034084;28;20414;-63
2022/04/17 13:58:28;;;;;;;1.80;1.70;;;;;;;;;;5033821;28;20465;-63
2022/04/17 14:00:56;;;;;;;1.90;1.50;;;;;;;;;;5034067;28;20889;-62
2022/04/17 14:03:22;;;;;;;1.97;1.87;;;;;;;;;;5033825;28;20414;-64
2022/04/17 14:05:48;;;;;;;4.20;2.00;;;;;;;;;;5033767;28;20504;-63
2022/04/17 14:08:14;;;;;;;2.20;1.80;;;;;;;;;;5033877;28;20912;-73
2022/04/17 14:10:40;;;;;;;3.00;1.40;;;;;;;;;;5033436;28;20406;-73
2022/04/17 14:13:08;;;;;;;1.50;1.40;;;;;;;;;;5033780;28;20442;-64
2022/04/17 14:15:34;;;;;;;2.43;1.90;;;;;;;;;;5033569;28;20413;-74
2022/04/17 14:18:00;;;;;;;2.07;1.87;;;;;;;;;;5033622;28;20478;-64
2022/04/17 14:20:26;;;;;;;1.70;1.60;;;;;;;;;;5033560;28;20882;-63
2022/04/17 14:22:52;;;;;;;1.47;1.37;;;;;;;;;;5033646;28;20414;-73
2022/04/17 14:25:18;;;;;;;2.20;2.03;;;;;;;;;;5033661;28;20410;-69
2022/04/17 14:27:44;;;;;;;2.10;1.67;;;;;;;;;;5033506;28;20517;-63
2022/04/17 14:30:10;;;;;;;1.90;1.80;;;;;;;;;;5033409;28;20967;-62
2022/04/17 14:32:36;;;;;;;1.60;1.50;;;;;;;;;;5033477;28;20414;-72
2022/04/17 14:35:03;;;;;;;2.20;1.63;;;;;;;;;;5033520;28;20769;-63
2022/04/17 14:37:29;;;;;;;2.30;1.80;;;;;;;;;;5033377;28;20502;-63
2022/04/17 14:39:55;;;;;;;2.67;1.97;;;;;;;;;;5033264;28;20510;-63
2022/04/17 14:42:21;;;;;;;1.90;1.80;;;;;;;;;;5033385;28;20417;-63
2022/04/17 14:44:47;;;;;;;2.00;1.90;;;;;;;;;;5033349;28;20419;-63
2022/04/17 14:47:13;;;;;;;4.50;2.20;;;;;;;;;;5033265;28;20894;-73
2022/04/17 14:49:39;;;;;;;2.20;1.90;;;;;;;;;;5033268;28;20434;-63
2022/04/17 14:52:06;;;;;;;2.47;1.87;;;;;;;;;;5033245;28;20973;-64
2022/04/17 14:54:33;;;;;;;1.93;1.83;;;;;;;;;;5033314;28;20402;-74
2022/04/17 14:56:59;;;;;;;2.33;1.60;;;;;;;;;;5033097;28;20452;-63